createdAt,value
2018-03-27T00:00:07.587Z,7.09
2018-03-27T00:02:35.888Z,6.97
2018-03-27T00:05:04.200Z,7.01
2018-03-27T00:07:32.470Z,6.90
2018-03-27T00:10:00.824Z,6.93
2018-03-27T00:12:29.116Z,6.90
2018-03-27T00:14:57.405Z,6.95
2018-03-27T00:17:25.680Z,6.88
2018-03-27T00:19:54.022Z,6.85
2018-03-27T00:22:22.312Z,6.80
2018-03-27T00:24:50.623Z,6.70
2018-03-27T00:27:18.362Z,6.69
2018-03-27T00:29:58.495Z,6.80
2018-03-27T00:32:38.484Z,6.76
2018-03-27T00:35:18.521Z,6.74
2018-03-27T00:37:58.518Z,6.84
2018-03-27T00:40:38.600Z,6.89
2018-03-27T00:43:07.621Z,6.70
2018-03-27T00:45:35.916Z,6.56
2018-03-27T00:48:05.054Z,6.36
2018-03-27T00:50:33.387Z,6.20
2018-03-27T00:53:01.717Z,6.31
2018-03-27T00:55:30.018Z,6.44
2018-03-27T00:57:58.387Z,6.56
2018-03-27T01:02:54.107Z,6.66
2018-03-27T01:05:22.392Z,6.63
2018-03-27T01:07:50.757Z,6.66
2018-03-27T01:10:19.095Z,6.66
2018-03-27T01:12:47.444Z,6.66
2018-03-27T01:15:15.699Z,6.71
2018-03-27T01:17:44.023Z,6.72
2018-03-27T01:20:12.302Z,6.60
2018-03-27T01:22:40.615Z,6.36
2018-03-27T01:25:08.892Z,6.37
2018-03-27T01:27:37.187Z,6.42
2018-03-27T01:30:05.467Z,6.54
2018-03-27T01:32:33.827Z,6.61
2018-03-27T01:35:02.211Z,6.60
2018-03-27T01:37:30.461Z,6.69
2018-03-27T01:39:58.744Z,6.81
2018-03-27T01:42:27.059Z,6.62
2018-03-27T01:44:55.367Z,6.67
2018-03-27T01:47:23.656Z,6.75
2018-03-27T01:49:51.952Z,6.84
2018-03-27T01:52:20.251Z,6.88
2018-03-27T01:54:48.551Z,6.84
2018-03-27T01:57:16.855Z,6.76
2018-03-27T01:59:45.164Z,6.82
2018-03-27T02:02:13.442Z,7.02
2018-03-27T02:04:41.756Z,6.99
2018-03-27T02:07:10.100Z,6.90
2018-03-27T02:09:38.471Z,6.90
2018-03-27T02:12:12.399Z,6.65
2018-03-27T02:14:46.179Z,6.52
2018-03-27T02:17:20.027Z,6.52
2018-03-27T02:19:53.998Z,6.46
2018-03-27T02:22:22.279Z,6.60
2018-03-27T02:24:50.628Z,6.73
2018-03-27T02:27:18.948Z,6.73
2018-03-27T02:29:47.290Z,6.68
2018-03-27T02:32:15.568Z,6.53
2018-03-27T02:34:43.859Z,6.57
2018-03-27T02:37:12.144Z,6.49
2018-03-27T02:39:40.495Z,6.50
2018-03-27T02:42:08.776Z,6.48
2018-03-27T02:44:37.086Z,6.53
2018-03-27T02:47:05.470Z,6.58
2018-03-27T02:49:33.733Z,6.41
2018-03-27T02:52:02.021Z,6.18
2018-03-27T02:54:30.292Z,5.95
2018-03-27T02:56:58.649Z,6.07
2018-03-27T02:59:26.998Z,6.09
2018-03-27T03:01:55.304Z,6.04
2018-03-27T03:04:26.954Z,6.17
2018-03-27T03:06:55.252Z,6.19
2018-03-27T03:09:23.556Z,6.15
2018-03-27T03:11:51.899Z,6.00
2018-03-27T03:14:20.247Z,5.91
2018-03-27T03:16:48.548Z,5.88
2018-03-27T03:19:16.836Z,6.05
2018-03-27T03:21:45.144Z,6.01
2018-03-27T03:24:13.451Z,6.03
2018-03-27T03:26:41.752Z,6.02
2018-03-27T03:29:10.039Z,6.11
2018-03-27T03:31:38.357Z,6.20
2018-03-27T03:34:06.644Z,6.25
2018-03-27T03:36:34.975Z,6.28
2018-03-27T03:39:03.324Z,6.35
2018-03-27T03:41:31.733Z,6.31
2018-03-27T03:44:00.024Z,6.25
2018-03-27T03:46:28.303Z,6.29
2018-03-27T03:48:56.644Z,6.23
2018-03-27T03:51:24.917Z,6.13
2018-03-27T03:53:53.224Z,6.08
2018-03-27T03:56:21.533Z,5.99
2018-03-27T03:58:49.839Z,5.87
2018-03-27T04:01:18.128Z,5.63
2018-03-27T04:03:46.434Z,5.73
2018-03-27T04:06:15.648Z,5.85
2018-03-27T04:08:43.992Z,5.96
2018-03-27T04:11:12.263Z,6.01
2018-03-27T04:13:40.646Z,6.08
2018-03-27T04:16:08.985Z,5.97
2018-03-27T04:18:37.282Z,5.94
2018-03-27T04:21:05.579Z,5.99
2018-03-27T04:23:33.884Z,6.01
2018-03-27T04:26:02.199Z,6.07
2018-03-27T04:28:30.503Z,6.10
2018-03-27T04:30:58.809Z,6.12
2018-03-27T04:33:27.125Z,6.11
2018-03-27T04:35:55.395Z,6.08
2018-03-27T04:38:24.046Z,6.17
2018-03-27T04:40:52.308Z,6.18
2018-03-27T04:43:20.634Z,6.21
2018-03-27T04:45:49.499Z,6.25
2018-03-27T04:48:18.229Z,6.14
2018-03-27T04:50:46.549Z,6.13
2018-03-27T04:53:14.844Z,6.14
2018-03-27T04:55:43.227Z,6.17
2018-03-27T04:58:11.514Z,6.16
2018-03-27T05:00:39.868Z,6.21
2018-03-27T05:03:08.182Z,6.23
2018-03-27T05:05:36.484Z,6.15
2018-03-27T05:08:07.164Z,6.05
2018-03-27T05:10:35.456Z,6.09
2018-03-27T05:13:04.777Z,6.03
2018-03-27T05:15:33.058Z,6.06
2018-03-27T05:18:01.353Z,6.15
2018-03-27T05:20:29.692Z,6.09
2018-03-27T05:22:58.016Z,6.06
2018-03-27T05:25:26.343Z,6.00
2018-03-27T05:27:54.800Z,6.03
2018-03-27T05:30:23.132Z,6.00
2018-03-27T05:32:52.667Z,6.07
2018-03-27T05:35:21.028Z,6.02
2018-03-27T05:37:49.285Z,6.12
2018-03-27T05:40:17.647Z,6.16
2018-03-27T05:42:46.847Z,6.17
2018-03-27T05:45:16.339Z,6.17
2018-03-27T05:47:44.632Z,6.12
2018-03-27T05:50:12.937Z,6.10
2018-03-27T05:52:41.311Z,6.06
2018-03-27T05:55:09.649Z,6.14
2018-03-27T05:57:37.940Z,6.20
2018-03-27T06:00:06.212Z,6.15
2018-03-27T06:02:34.601Z,6.22
2018-03-27T06:05:02.931Z,6.35
2018-03-27T06:07:31.244Z,6.40
2018-03-27T06:10:00.333Z,6.48
2018-03-27T06:12:28.621Z,6.51
2018-03-27T06:14:56.908Z,6.59
2018-03-27T06:17:25.217Z,6.60
2018-03-27T06:19:53.554Z,6.55
2018-03-27T06:22:21.823Z,6.54
2018-03-27T06:24:50.102Z,6.59
2018-03-27T06:27:18.671Z,6.65
2018-03-27T06:29:47.005Z,6.79
2018-03-27T06:32:15.492Z,7.01
2018-03-27T06:34:44.415Z,7.09
2018-03-27T06:37:12.735Z,6.94
2018-03-27T06:39:41.065Z,7.04
2018-03-27T06:42:09.450Z,7.08
2018-03-27T06:44:43.552Z,7.22
2018-03-27T06:47:13.605Z,7.23
2018-03-27T06:49:41.861Z,7.29
2018-03-27T06:52:10.135Z,7.37
2018-03-27T06:54:38.470Z,7.40
2018-03-27T06:57:06.780Z,7.48
2018-03-27T06:59:35.712Z,7.63
2018-03-27T07:02:04.528Z,7.74
2018-03-27T07:04:33.089Z,7.81
2018-03-27T07:07:01.706Z,7.82
2018-03-27T07:09:30.021Z,7.93
2018-03-27T07:12:03.589Z,8.03
2018-03-27T07:14:31.963Z,7.98
2018-03-27T07:17:00.250Z,8.15
2018-03-27T07:19:28.574Z,8.29
2018-03-27T07:21:56.881Z,8.34
2018-03-27T07:24:25.216Z,8.40
2018-03-27T07:26:53.528Z,8.49
2018-03-27T07:29:22.152Z,8.45
2018-03-27T07:31:50.464Z,8.40
2018-03-27T07:34:18.859Z,8.40
2018-03-27T07:36:47.244Z,8.46
2018-03-27T07:39:16.063Z,8.66
2018-03-27T07:41:44.798Z,8.72
2018-03-27T07:44:13.296Z,8.81
2018-03-27T07:46:41.603Z,8.84
2018-03-27T07:49:09.910Z,8.86
2018-03-27T07:51:38.192Z,8.89
2018-03-27T07:54:06.553Z,8.94
2018-03-27T07:56:34.843Z,9.03
2018-03-27T07:59:03.210Z,9.09
2018-03-27T08:01:31.831Z,9.05
2018-03-27T08:04:00.156Z,9.12
2018-03-27T08:06:28.511Z,8.99
2018-03-27T08:08:56.831Z,8.93
2018-03-27T08:11:25.154Z,8.90
2018-03-27T08:13:54.309Z,8.90
2018-03-27T08:16:23.940Z,8.92
2018-03-27T08:18:52.306Z,8.89
2018-03-27T08:21:21.468Z,8.90
2018-03-27T08:23:49.783Z,8.93
2018-03-27T08:26:19.174Z,8.95
2018-03-27T08:28:48.593Z,9.00
2018-03-27T08:31:16.931Z,9.10
2018-03-27T08:33:45.220Z,9.04
2018-03-27T08:36:13.657Z,9.16
2018-03-27T08:38:41.932Z,9.13
2018-03-27T08:41:10.991Z,9.20
2018-03-27T08:43:39.267Z,9.25
2018-03-27T08:46:08.218Z,9.21
2018-03-27T08:48:36.650Z,9.10
2018-03-27T08:51:05.207Z,9.05
2018-03-27T08:53:33.584Z,9.14
2018-03-27T08:56:02.572Z,9.13
2018-03-27T08:58:30.854Z,9.12
2018-03-27T09:00:59.683Z,9.19
2018-03-27T09:03:28.169Z,9.26
2018-03-27T09:05:56.558Z,9.34
2018-03-27T09:08:24.900Z,9.41
2018-03-27T09:10:53.184Z,9.54
2018-03-27T09:13:21.529Z,9.63
2018-03-27T09:15:53.299Z,9.73
2018-03-27T09:18:21.660Z,9.60
2018-03-27T09:20:49.942Z,9.63
2018-03-27T09:23:18.323Z,9.75
2018-03-27T09:25:47.891Z,9.91
2018-03-27T09:28:16.517Z,10.06
2018-03-27T09:30:45.751Z,10.12
2018-03-27T09:33:14.164Z,10.15
2018-03-27T09:35:42.599Z,10.27
2018-03-27T09:38:10.958Z,10.41
2018-03-27T09:40:39.282Z,10.33
2018-03-27T09:43:08.251Z,10.48
2018-03-27T09:45:36.557Z,10.41
2018-03-27T09:48:05.620Z,9.98
2018-03-27T09:50:33.926Z,10.33
2018-03-27T09:53:02.879Z,10.22
2018-03-27T09:55:31.220Z,10.12
2018-03-27T09:57:59.877Z,10.16
2018-03-27T10:00:34.783Z,10.10
2018-03-27T10:03:03.068Z,10.26
2018-03-27T10:05:31.443Z,10.42
2018-03-27T10:08:00.319Z,10.41
2018-03-27T10:10:29.857Z,10.46
2018-03-27T10:12:58.180Z,10.48
2018-03-27T10:15:26.536Z,10.68
2018-03-27T10:17:54.961Z,10.62
2018-03-27T10:20:23.304Z,10.85
2018-03-27T10:22:52.108Z,10.92
2018-03-27T10:25:20.534Z,11.08
2018-03-27T10:27:49.444Z,11.15
2018-03-27T10:30:17.737Z,11.11
2018-03-27T10:32:46.090Z,11.13
2018-03-27T10:35:14.940Z,11.33
2018-03-27T10:37:43.247Z,11.51
2018-03-27T10:40:11.586Z,11.72
2018-03-27T10:42:39.899Z,11.77
2018-03-27T10:45:08.260Z,11.72
2018-03-27T10:47:36.556Z,11.91
2018-03-27T10:50:05.372Z,11.72
2018-03-27T10:52:33.722Z,12.01
2018-03-27T10:55:02.762Z,11.98
2018-03-27T10:57:31.136Z,12.16
2018-03-27T10:59:59.462Z,12.17
2018-03-27T11:02:27.849Z,12.30
2018-03-27T11:04:56.683Z,12.24
2018-03-27T11:07:25.685Z,12.36
2018-03-27T11:09:54.018Z,12.46
2018-03-27T11:12:22.387Z,12.76
2018-03-27T11:14:50.709Z,13.01
2018-03-27T11:17:19.765Z,13.03
2018-03-27T11:19:48.259Z,12.98
2018-03-27T11:22:16.837Z,12.88
2018-03-27T11:24:45.098Z,13.06
2018-03-27T11:27:13.471Z,13.15
2018-03-27T11:29:41.873Z,13.09
2018-03-27T11:32:10.516Z,13.19
2018-03-27T11:34:38.810Z,13.35
2018-03-27T11:37:10.576Z,13.44
2018-03-27T11:39:42.096Z,13.34
2018-03-27T11:42:11.628Z,13.37
2018-03-27T11:44:40.240Z,13.56
2018-03-27T11:47:09.670Z,13.80
2018-03-27T11:49:38.324Z,13.90
2018-03-27T11:52:09.172Z,13.61
2018-03-27T11:54:37.600Z,13.72
2018-03-27T11:57:06.552Z,13.69
2018-03-27T11:59:34.852Z,13.69
2018-03-27T12:02:03.600Z,13.74
2018-03-27T12:04:32.193Z,13.83
2018-03-27T12:07:04.396Z,13.89
2018-03-27T12:09:33.736Z,13.79
2018-03-27T12:12:02.086Z,13.75
2018-03-27T12:14:31.130Z,13.52
2018-03-27T12:16:59.494Z,13.42
2018-03-27T12:19:27.929Z,13.27
2018-03-27T12:21:58.248Z,13.08
2018-03-27T12:24:26.645Z,13.02
2018-03-27T12:26:54.971Z,13.04
2018-03-27T12:29:23.317Z,12.98
2018-03-27T12:31:51.628Z,12.92
2018-03-27T12:34:20.259Z,12.75
2018-03-27T12:36:48.639Z,12.77
2018-03-27T12:39:17.027Z,12.87
2018-03-27T12:41:45.366Z,13.00
2018-03-27T12:44:13.739Z,12.99
2018-03-27T12:46:42.363Z,13.00
2018-03-27T12:49:11.247Z,12.92
2018-03-27T12:51:39.546Z,12.94
2018-03-27T12:54:07.988Z,12.93
2018-03-27T12:56:36.343Z,13.04
2018-03-27T12:59:05.698Z,12.89
2018-03-27T13:01:33.966Z,13.20
2018-03-27T13:04:02.372Z,13.05
2018-03-27T13:06:30.940Z,13.01
2018-03-27T13:08:59.256Z,12.92
2018-03-27T13:11:27.604Z,12.99
2018-03-27T13:13:55.874Z,12.93
2018-03-27T13:16:24.267Z,12.75
2018-03-27T13:18:52.748Z,12.72
2018-03-27T13:21:23.273Z,12.57
2018-03-27T13:23:51.674Z,12.59
2018-03-27T13:26:20.252Z,12.51
2018-03-27T13:28:49.271Z,12.50
2018-03-27T13:31:17.631Z,12.45
2018-03-27T13:33:45.941Z,12.47
2018-03-27T13:36:14.286Z,12.47
2018-03-27T13:38:42.574Z,12.43
2018-03-27T13:41:10.898Z,12.39
2018-03-27T13:43:39.204Z,12.41
2018-03-27T13:46:07.565Z,12.39
2018-03-27T13:48:35.888Z,12.39
2018-03-27T13:51:04.332Z,12.44
2018-03-27T13:53:32.724Z,12.48
2018-03-27T13:56:01.097Z,12.50
2018-03-27T13:58:29.526Z,12.55
2018-03-27T14:00:57.853Z,12.75
2018-03-27T14:03:26.151Z,12.64
2018-03-27T14:05:54.671Z,12.68
2018-03-27T14:08:23.755Z,12.67
2018-03-27T14:10:53.262Z,12.55
2018-03-27T14:13:21.700Z,12.44
2018-03-27T14:15:50.748Z,12.51
2018-03-27T14:18:19.108Z,12.44
2018-03-27T14:20:47.422Z,12.61
2018-03-27T14:23:15.730Z,12.42
2018-03-27T14:25:44.027Z,12.19
2018-03-27T14:28:15.986Z,12.07
2018-03-27T14:30:44.998Z,11.99
2018-03-27T14:33:13.311Z,11.92
2018-03-27T14:35:41.633Z,11.84
2018-03-27T14:38:10.062Z,11.72
2018-03-27T14:40:39.169Z,11.75
2018-03-27T14:43:07.616Z,11.63
2018-03-27T14:45:36.234Z,11.30
2018-03-27T14:48:05.126Z,11.28
2018-03-27T14:50:33.437Z,11.22
2018-03-27T14:53:01.842Z,11.30
2018-03-27T14:55:30.108Z,11.37
2018-03-27T14:57:59.295Z,11.54
2018-03-27T15:00:27.648Z,11.61
2018-03-27T15:02:56.524Z,11.60
2018-03-27T15:05:25.367Z,11.35
2018-03-27T15:07:55.417Z,11.54
2018-03-27T15:10:23.795Z,11.51
2018-03-27T15:12:52.129Z,11.51
2018-03-27T15:15:21.020Z,11.56
2018-03-27T15:17:49.354Z,11.31
2018-03-27T15:20:17.781Z,11.35
2018-03-27T15:22:46.192Z,11.43
2018-03-27T15:25:14.744Z,11.51
2018-03-27T15:27:43.161Z,11.52
2018-03-27T15:30:11.569Z,11.48
2018-03-27T15:32:39.873Z,11.61
2018-03-27T15:35:08.200Z,11.55
2018-03-27T15:37:36.600Z,11.53
2018-03-27T15:40:05.763Z,11.59
2018-03-27T15:42:36.258Z,11.82
2018-03-27T15:45:05.662Z,11.76
2018-03-27T15:47:33.961Z,11.70
2018-03-27T15:50:02.327Z,11.75
2018-03-27T15:52:30.652Z,11.68
2018-03-27T15:54:58.983Z,11.71
2018-03-27T15:57:27.346Z,11.84
2018-03-27T15:59:55.717Z,11.73
2018-03-27T16:02:24.085Z,11.68
2018-03-27T16:04:52.547Z,11.74
2018-03-27T16:07:20.984Z,11.81
2018-03-27T16:09:49.359Z,11.79
2018-03-27T16:12:17.702Z,11.64
2018-03-27T16:14:46.775Z,11.57
2018-03-27T16:17:15.170Z,11.54
2018-03-27T16:19:43.500Z,11.49
2018-03-27T16:22:12.540Z,11.31
2018-03-27T16:24:41.002Z,11.36
2018-03-27T16:27:09.363Z,11.42
2018-03-27T16:29:38.303Z,11.46
2018-03-27T16:32:06.648Z,11.47
2018-03-27T16:34:34.930Z,11.41
2018-03-27T16:37:03.369Z,11.31
2018-03-27T16:39:31.646Z,11.27
2018-03-27T16:41:59.958Z,11.22
2018-03-27T16:44:28.260Z,11.18
2018-03-27T16:46:56.560Z,11.15
2018-03-27T16:49:24.882Z,11.17
2018-03-27T16:51:53.226Z,11.14
2018-03-27T16:54:21.546Z,11.08
2018-03-27T16:56:49.864Z,11.02
2018-03-27T16:59:18.398Z,10.94
2018-03-27T17:01:46.762Z,10.99
2018-03-27T17:04:15.082Z,10.98
2018-03-27T17:06:43.421Z,11.04
2018-03-27T17:09:13.065Z,11.02
2018-03-27T17:11:41.408Z,10.85
2018-03-27T17:14:09.723Z,10.79
2018-03-27T17:16:38.292Z,10.78
2018-03-27T17:19:06.679Z,10.82
2018-03-27T17:21:35.029Z,10.91
2018-03-27T17:24:03.388Z,10.81
2018-03-27T17:26:31.749Z,10.80
2018-03-27T17:29:00.823Z,10.81
2018-03-27T17:31:29.116Z,10.65
2018-03-27T17:33:57.437Z,10.72
2018-03-27T17:36:25.704Z,10.78
2018-03-27T17:38:54.074Z,10.91
2018-03-27T17:41:22.342Z,10.86
2018-03-27T17:43:50.686Z,10.74
2018-03-27T17:46:18.989Z,10.66
2018-03-27T17:48:47.315Z,10.56
2018-03-27T17:51:15.599Z,10.57
2018-03-27T17:53:43.902Z,10.48
2018-03-27T17:56:12.175Z,10.36
2018-03-27T17:58:40.500Z,10.48
2018-03-27T18:01:08.838Z,10.35
2018-03-27T18:03:37.157Z,10.34
2018-03-27T18:06:06.395Z,10.26
2018-03-27T18:08:34.811Z,10.25
2018-03-27T18:11:03.116Z,10.25
2018-03-27T18:13:31.456Z,10.19
2018-03-27T18:15:59.743Z,10.10
2018-03-27T18:18:28.067Z,10.02
2018-03-27T18:20:57.293Z,10.03
2018-03-27T18:23:25.665Z,10.01
2018-03-27T18:25:54.040Z,10.11
2018-03-27T18:28:22.388Z,10.13
2018-03-27T18:30:50.745Z,9.93
2018-03-27T18:33:19.048Z,9.87
2018-03-27T18:35:47.425Z,9.87
2018-03-27T18:38:15.809Z,9.84
2018-03-27T18:40:44.168Z,9.78
2018-03-27T18:43:12.531Z,9.77
2018-03-27T18:45:40.842Z,9.81
2018-03-27T18:48:09.218Z,9.76
2018-03-27T18:50:37.637Z,9.83
2018-03-27T18:53:06.484Z,9.71
2018-03-27T18:55:34.793Z,9.50
2018-03-27T18:58:03.168Z,9.67
2018-03-27T19:00:31.458Z,9.21
2018-03-27T19:02:59.793Z,9.56
2018-03-27T19:05:28.393Z,9.51
2018-03-27T19:07:56.706Z,9.44
2018-03-27T19:10:25.066Z,9.46
2018-03-27T19:12:53.332Z,9.59
2018-03-27T19:15:22.003Z,9.50
2018-03-27T19:17:50.293Z,9.41
2018-03-27T19:20:18.570Z,9.46
2018-03-27T19:22:47.237Z,9.66
2018-03-27T19:25:15.560Z,9.77
2018-03-27T19:27:43.877Z,9.72
2018-03-27T19:30:12.185Z,9.55
2018-03-27T19:32:40.497Z,9.50
2018-03-27T19:35:08.819Z,9.49
2018-03-27T19:37:37.111Z,9.54
2018-03-27T19:40:06.129Z,9.61
2018-03-27T19:42:34.424Z,9.50
2018-03-27T19:45:02.718Z,9.53
2018-03-27T19:47:31.280Z,9.58
2018-03-27T19:50:01.026Z,9.46
2018-03-27T19:52:29.652Z,9.45
2018-03-27T19:54:58.199Z,9.52
2018-03-27T19:57:27.762Z,9.52
2018-03-27T19:59:57.048Z,9.39
2018-03-27T20:02:26.490Z,9.36
2018-03-27T20:04:55.047Z,9.28
2018-03-27T20:07:23.620Z,9.23
2018-03-27T20:09:52.077Z,9.25
2018-03-27T20:12:25.339Z,9.23
2018-03-27T20:14:53.677Z,9.30
2018-03-27T20:17:23.076Z,9.25
2018-03-27T20:19:51.932Z,9.16
2018-03-27T20:22:20.316Z,9.15
2018-03-27T20:24:50.038Z,9.18
2018-03-27T20:27:22.321Z,9.00
2018-03-27T20:29:58.923Z,9.06
2018-03-27T20:32:29.436Z,9.12
2018-03-27T20:34:57.784Z,9.16
2018-03-27T20:37:26.075Z,9.24
2018-03-27T20:39:54.376Z,9.32
2018-03-27T20:42:22.653Z,9.25
2018-03-27T20:44:51.079Z,9.15
2018-03-27T20:47:19.413Z,9.20
2018-03-27T20:49:47.746Z,9.22
2018-03-27T20:52:16.035Z,9.13
2018-03-27T20:54:44.415Z,9.22
2018-03-27T20:57:12.688Z,9.23
2018-03-27T20:59:40.998Z,9.15
2018-03-27T21:02:09.275Z,9.29
2018-03-27T21:04:37.612Z,9.26
2018-03-27T21:07:05.885Z,9.22
2018-03-27T21:09:34.224Z,9.35
2018-03-27T21:12:02.525Z,9.42
2018-03-27T21:14:30.807Z,9.38
2018-03-27T21:17:00.485Z,9.40
2018-03-27T21:19:28.864Z,9.31
2018-03-27T21:21:57.133Z,9.24
2018-03-27T21:24:25.567Z,9.20
2018-03-27T21:26:53.923Z,9.21
2018-03-27T21:29:22.216Z,9.30
2018-03-27T21:31:50.492Z,9.24
2018-03-27T21:34:18.831Z,9.20
2018-03-27T21:36:47.158Z,9.30
2018-03-27T21:39:15.455Z,9.41
2018-03-27T21:41:43.814Z,9.41
2018-03-27T21:44:12.108Z,9.40
2018-03-27T21:46:40.460Z,9.40
2018-03-27T21:49:08.732Z,9.33
2018-03-27T21:51:37.045Z,8.93
2018-03-27T21:54:05.726Z,9.31
2018-03-27T21:56:34.027Z,9.37
2018-03-27T21:59:02.298Z,9.36
2018-03-27T22:01:30.585Z,9.32
2018-03-27T22:03:58.867Z,9.27
2018-03-27T22:06:27.174Z,9.23
2018-03-27T22:08:55.518Z,9.23
2018-03-27T22:11:24.028Z,9.23
2018-03-27T22:13:52.271Z,9.38
2018-03-27T22:16:20.648Z,9.46
2018-03-27T22:18:48.967Z,9.43
2018-03-27T22:21:17.302Z,9.44
2018-03-27T22:23:45.563Z,9.23
2018-03-27T22:26:13.880Z,9.38
2018-03-27T22:28:42.387Z,9.44
2018-03-27T22:31:10.665Z,9.53
2018-03-27T22:33:39.057Z,9.43
2018-03-27T22:36:07.332Z,9.33
2018-03-27T22:38:35.656Z,9.42
2018-03-27T22:41:04.827Z,9.40
2018-03-27T22:43:33.162Z,9.51
2018-03-27T22:46:01.507Z,9.47
2018-03-27T22:48:29.978Z,9.48
2018-03-27T22:50:58.267Z,9.47
2018-03-27T22:53:26.679Z,9.54
2018-03-27T22:55:54.952Z,9.63
2018-03-27T22:58:23.264Z,9.63
2018-03-27T23:00:51.536Z,9.61
2018-03-27T23:03:19.860Z,9.61
2018-03-27T23:05:48.177Z,9.62
2018-03-27T23:08:16.464Z,9.62
2018-03-27T23:10:44.764Z,9.57
2018-03-27T23:13:13.168Z,9.66
2018-03-27T23:15:41.414Z,9.70
2018-03-27T23:18:09.692Z,9.64
2018-03-27T23:20:37.986Z,9.58
2018-03-27T23:23:06.251Z,9.61
2018-03-27T23:25:34.496Z,9.68
2018-03-27T23:28:02.758Z,9.75
2018-03-27T23:30:31.072Z,9.78
2018-03-27T23:32:59.360Z,9.66
2018-03-27T23:35:27.656Z,9.74
2018-03-27T23:37:55.930Z,9.65
2018-03-27T23:40:24.248Z,9.71
2018-03-27T23:42:52.520Z,9.74
2018-03-27T23:45:20.808Z,9.79
2018-03-27T23:47:49.083Z,9.76
2018-03-27T23:50:17.408Z,9.79
2018-03-27T23:52:45.658Z,9.75
2018-03-27T23:55:13.980Z,9.85
2018-03-27T23:57:42.272Z,9.78
